createdAt,value
2023-03-24T00:02:06.659Z,94.74
2023-03-24T00:04:23.774Z,94.41
2023-03-24T00:06:40.867Z,93.80
2023-03-24T00:08:58.004Z,93.38
2023-03-24T00:11:14.936Z,94.27
2023-03-24T00:13:31.958Z,93.52
2023-03-24T00:15:48.990Z,94.08
2023-03-24T00:18:06.280Z,95.43
2023-03-24T00:20:23.639Z,93.65
2023-03-24T00:22:40.623Z,94.02
2023-03-24T00:24:57.518Z,93.69
2023-03-24T00:27:15.853Z,94.42
2023-03-24T00:29:32.828Z,94.34
2023-03-24T00:31:49.767Z,94.05
2023-03-24T00:34:06.708Z,93.58
2023-03-24T00:36:23.749Z,93.26
2023-03-24T00:38:40.759Z,93.68
2023-03-24T00:40:58.115Z,94.08
2023-03-24T00:43:15.134Z,93.89
2023-03-24T00:45:32.259Z,93.97
2023-03-24T00:47:49.222Z,94.42
2023-03-24T00:50:07.239Z,94.57
2023-03-24T00:52:24.311Z,94.63
2023-03-24T00:54:41.336Z,94.69
2023-03-24T00:56:58.348Z,95.07
2023-03-24T00:59:15.401Z,95.53
2023-03-24T01:01:32.429Z,95.74
2023-03-24T01:03:49.376Z,96.23
2023-03-24T01:06:06.303Z,95.70
2023-03-24T01:08:23.298Z,96.24
2023-03-24T01:10:40.348Z,96.38
2023-03-24T01:12:57.799Z,97.58
2023-03-24T01:15:14.760Z,97.72
2023-03-24T01:17:31.900Z,96.62
2023-03-24T01:19:49.213Z,97.27
2023-03-24T01:22:06.211Z,97.69
2023-03-24T01:24:23.540Z,98.38
2023-03-24T01:26:40.822Z,97.43
2023-03-24T01:28:57.882Z,97.98
2023-03-24T01:31:14.992Z,98.04
2023-03-24T01:33:32.120Z,98.00
2023-03-24T01:35:49.377Z,97.41
2023-03-24T01:38:07.278Z,98.56
2023-03-24T01:40:24.563Z,98.30
2023-03-24T01:42:41.940Z,99.02
2023-03-24T01:44:59.024Z,98.74
2023-03-24T01:47:16.056Z,98.43
2023-03-24T01:49:33.002Z,98.79
2023-03-24T01:51:49.916Z,97.88
2023-03-24T01:54:06.812Z,98.41
2023-03-24T01:56:23.895Z,98.51
2023-03-24T01:58:41.142Z,98.27
2023-03-24T02:00:58.117Z,98.05
2023-03-24T02:03:15.193Z,97.76
2023-03-24T02:05:32.216Z,97.58
2023-03-24T02:07:49.549Z,97.26
2023-03-24T02:10:06.593Z,97.34
2023-03-24T02:12:23.590Z,97.90
2023-03-24T02:14:41.554Z,98.38
2023-03-24T02:16:58.516Z,98.66
2023-03-24T02:19:15.458Z,97.27
2023-03-24T02:21:32.374Z,98.42
2023-03-24T02:23:50.586Z,98.57
2023-03-24T02:26:07.832Z,97.28
2023-03-24T02:28:24.729Z,97.84
2023-03-24T02:30:42.683Z,97.85
2023-03-24T02:32:59.839Z,98.56
2023-03-24T02:35:16.785Z,98.93
2023-03-24T02:37:34.049Z,98.46
2023-03-24T02:39:51.269Z,99.20
2023-03-24T02:42:08.172Z,98.75
2023-03-24T02:44:25.472Z,99.24
2023-03-24T02:46:42.714Z,99.09
2023-03-24T02:48:59.684Z,99.19
2023-03-24T02:51:17.681Z,98.83
2023-03-24T02:53:34.968Z,98.69
2023-03-24T02:55:51.844Z,99.42
2023-03-24T02:58:08.740Z,99.82
2023-03-24T03:00:25.692Z,99.51
2023-03-24T03:02:43.812Z,99.88
2023-03-24T03:05:00.896Z,99.23
2023-03-24T03:07:17.806Z,99.80
2023-03-24T03:09:35.004Z,99.15
2023-03-24T03:11:52.087Z,99.85
2023-03-24T03:14:09.013Z,99.48
2023-03-24T03:16:26.273Z,100.00
2023-03-24T03:18:43.277Z,100.00
2023-03-24T03:21:00.341Z,100.00
2023-03-24T03:23:17.648Z,100.00
2023-03-24T03:25:35.699Z,99.78
2023-03-24T03:27:52.739Z,100.00
2023-03-24T03:30:09.658Z,100.00
2023-03-24T03:32:26.858Z,100.00
2023-03-24T03:34:43.792Z,100.00
2023-03-24T03:37:00.719Z,100.00
2023-03-24T03:39:17.625Z,100.00
2023-03-24T03:41:34.690Z,100.00
2023-03-24T03:43:51.586Z,100.00
2023-03-24T03:46:08.698Z,100.00
2023-03-24T03:48:25.891Z,100.00
2023-03-24T03:50:43.160Z,100.00
2023-03-24T03:53:00.432Z,99.52
2023-03-24T03:55:17.439Z,100.00
2023-03-24T03:57:34.391Z,99.57
2023-03-24T03:59:51.709Z,99.40
2023-03-24T04:02:08.712Z,99.67
2023-03-24T04:04:25.759Z,99.62
2023-03-24T04:06:42.812Z,99.71
2023-03-24T04:08:59.858Z,99.66
2023-03-24T04:11:17.123Z,99.81
2023-03-24T04:13:34.404Z,100.00
2023-03-24T04:15:51.548Z,99.37
2023-03-24T04:18:08.448Z,99.53
2023-03-24T04:20:25.356Z,99.10
2023-03-24T04:22:42.336Z,98.76
2023-03-24T04:24:59.271Z,98.78
2023-03-24T04:27:16.555Z,99.06
2023-03-24T04:29:33.455Z,97.83
2023-03-24T04:31:50.398Z,98.10
2023-03-24T04:34:08.338Z,97.54
2023-03-24T04:36:26.632Z,97.87
2023-03-24T04:38:43.714Z,97.67
2023-03-24T04:41:00.784Z,97.96
2023-03-24T04:43:19.064Z,98.20
2023-03-24T04:45:36.409Z,98.69
2023-03-24T04:47:53.551Z,97.71
2023-03-24T04:50:10.557Z,98.18
2023-03-24T04:52:27.490Z,98.57
2023-03-24T04:54:44.468Z,97.50
2023-03-24T04:57:01.509Z,97.49
2023-03-24T04:59:18.423Z,99.04
2023-03-24T05:01:35.349Z,97.46
2023-03-24T05:03:53.340Z,97.08
2023-03-24T05:06:10.700Z,96.38
2023-03-24T05:08:28.635Z,95.27
2023-03-24T05:10:45.726Z,95.92
2023-03-24T05:13:02.951Z,95.63
2023-03-24T05:15:20.153Z,95.40
2023-03-24T05:17:37.150Z,95.34
2023-03-24T05:19:54.060Z,95.60
2023-03-24T05:22:11.277Z,95.16
2023-03-24T05:24:28.186Z,95.43
2023-03-24T05:26:45.219Z,95.64
2023-03-24T05:29:02.555Z,95.88
2023-03-24T05:31:19.523Z,95.78
2023-03-24T05:33:36.541Z,95.69
2023-03-24T05:35:53.672Z,96.16
2023-03-24T05:38:10.739Z,95.73
2023-03-24T05:40:28.940Z,96.79
2023-03-24T05:42:45.858Z,96.23
2023-03-24T05:45:02.768Z,96.70
2023-03-24T05:47:19.728Z,95.22
2023-03-24T05:49:36.629Z,96.35
2023-03-24T05:51:54.553Z,96.25
2023-03-24T05:54:11.443Z,96.22
2023-03-24T05:56:28.397Z,96.17
2023-03-24T05:58:45.423Z,95.59
2023-03-24T06:01:02.523Z,96.96
2023-03-24T06:03:19.861Z,96.62
2023-03-24T06:05:36.906Z,96.98
2023-03-24T06:07:53.943Z,97.85
2023-03-24T06:10:10.978Z,98.74
2023-03-24T06:12:27.961Z,98.70
2023-03-24T06:14:45.021Z,99.02
2023-03-24T06:17:02.281Z,98.82
2023-03-24T06:19:19.193Z,99.41
2023-03-24T06:21:36.414Z,98.91
2023-03-24T06:23:53.431Z,99.29
2023-03-24T06:26:10.315Z,98.67
2023-03-24T06:28:28.221Z,99.50
2023-03-24T06:30:45.231Z,98.44
2023-03-24T06:33:02.325Z,99.69
2023-03-24T06:35:19.608Z,99.19
2023-03-24T06:37:36.861Z,98.76
2023-03-24T06:39:54.060Z,98.83
2023-03-24T06:42:11.132Z,98.92
2023-03-24T06:44:29.342Z,99.90
2023-03-24T06:46:46.415Z,99.72
2023-03-24T06:49:03.700Z,100.00
2023-03-24T06:51:20.990Z,99.78
2023-03-24T06:53:38.250Z,100.00
2023-03-24T06:55:55.319Z,98.89
2023-03-24T06:58:13.314Z,99.59
2023-03-24T07:00:30.703Z,100.00
2023-03-24T07:02:48.881Z,100.00
2023-03-24T07:05:06.157Z,100.00
2023-03-24T07:09:44.010Z,99.67
2023-03-24T07:12:01.218Z,99.26
2023-03-24T07:14:18.112Z,99.52
2023-03-24T07:16:35.131Z,99.40
2023-03-24T07:18:52.449Z,99.39
2023-03-24T07:21:09.433Z,99.22
2023-03-24T07:23:26.487Z,97.60
2023-03-24T07:25:43.721Z,98.42
2023-03-24T07:28:00.657Z,99.26
2023-03-24T07:30:20.531Z,98.32
2023-03-24T07:32:41.597Z,98.67
2023-03-24T07:34:58.576Z,99.05
2023-03-24T07:37:15.848Z,99.49
2023-03-24T07:39:34.089Z,100.00
2023-03-24T07:41:51.096Z,100.00
2023-03-24T07:44:08.154Z,99.20
2023-03-24T07:46:25.072Z,100.00
2023-03-24T07:48:42.013Z,100.00
2023-03-24T07:50:59.258Z,100.00
2023-03-24T07:53:16.256Z,100.00
2023-03-24T07:55:33.535Z,100.00
2023-03-24T07:57:50.544Z,100.00
2023-03-24T08:00:07.585Z,100.00
2023-03-24T08:02:24.655Z,100.00
2023-03-24T08:04:41.790Z,95.73
2023-03-24T08:06:58.815Z,95.99
2023-03-24T08:09:16.051Z,91.37
2023-03-24T08:11:32.997Z,91.41
2023-03-24T08:13:49.872Z,89.86
2023-03-24T08:16:07.153Z,89.79
2023-03-24T08:18:24.445Z,89.62
2023-03-24T08:20:41.519Z,90.90
2023-03-24T08:22:58.415Z,90.20
2023-03-24T08:25:15.372Z,90.49
2023-03-24T08:27:32.274Z,90.57
2023-03-24T08:29:49.453Z,91.71
2023-03-24T08:32:06.795Z,90.71
2023-03-24T08:34:24.003Z,91.22
2023-03-24T08:36:41.037Z,90.99
2023-03-24T08:38:58.090Z,91.45
2023-03-24T08:41:15.010Z,90.85
2023-03-24T08:43:32.916Z,92.75
2023-03-24T08:45:49.965Z,91.93
2023-03-24T08:48:07.333Z,90.91
2023-03-24T08:50:24.540Z,92.00
2023-03-24T08:52:41.445Z,91.70
2023-03-24T08:54:58.379Z,92.43
2023-03-24T08:57:16.547Z,91.02
2023-03-24T08:59:33.599Z,91.28
2023-03-24T09:01:50.673Z,91.43
2023-03-24T09:04:07.761Z,91.80
2023-03-24T09:06:24.683Z,92.52
2023-03-24T09:08:41.641Z,93.17
2023-03-24T09:10:58.659Z,92.52
2023-03-24T09:13:15.671Z,91.85
2023-03-24T09:15:33.093Z,89.77
2023-03-24T09:17:50.109Z,89.73
2023-03-24T09:20:07.379Z,90.28
2023-03-24T09:22:43.925Z,90.32
2023-03-24T09:25:21.693Z,89.09
2023-03-24T09:27:59.064Z,90.45
2023-03-24T09:30:36.311Z,88.66
2023-03-24T09:33:13.848Z,88.12
2023-03-24T09:35:51.071Z,86.13
2023-03-24T09:38:28.352Z,85.07
2023-03-24T09:41:05.625Z,83.56
2023-03-24T09:43:42.801Z,85.22
2023-03-24T09:46:20.038Z,85.04
2023-03-24T09:48:57.304Z,83.39
2023-03-24T09:51:34.625Z,83.47
2023-03-24T09:54:12.177Z,82.71
2023-03-24T09:56:51.520Z,84.84
2023-03-24T09:59:29.557Z,84.80
2023-03-24T10:02:06.720Z,86.53
2023-03-24T10:04:43.889Z,84.55
2023-03-24T10:07:21.111Z,85.00
2023-03-24T10:09:58.369Z,84.99
2023-03-24T10:12:35.897Z,82.49
2023-03-24T10:15:13.073Z,82.71
2023-03-24T10:17:50.649Z,82.09
2023-03-24T10:20:27.983Z,81.64
2023-03-24T10:23:05.192Z,81.85
2023-03-24T10:25:42.743Z,80.35
2023-03-24T10:28:20.010Z,76.16
2023-03-24T10:30:57.419Z,79.04
2023-03-24T10:33:34.626Z,78.42
2023-03-24T10:36:12.265Z,77.72
2023-03-24T10:38:49.488Z,77.88
2023-03-24T10:41:27.060Z,75.53
2023-03-24T10:44:04.415Z,75.37
2023-03-24T10:46:41.725Z,74.61
2023-03-24T10:49:19.285Z,72.55
2023-03-24T10:51:56.550Z,68.13
2023-03-24T10:54:33.923Z,70.00
2023-03-24T10:57:11.194Z,69.46
2023-03-24T10:59:48.397Z,63.48
2023-03-24T11:02:25.919Z,64.97
2023-03-24T11:05:03.633Z,63.38
2023-03-24T11:07:41.276Z,64.08
2023-03-24T11:10:15.233Z,67.09
2023-03-24T11:12:32.474Z,63.02
2023-03-24T11:14:49.376Z,62.56
2023-03-24T11:17:06.395Z,62.28
2023-03-24T11:19:23.653Z,63.15
2023-03-24T11:21:40.971Z,61.57
2023-03-24T11:23:57.954Z,61.61
2023-03-24T11:26:15.267Z,60.74
2023-03-24T11:28:32.298Z,61.26
2023-03-24T11:30:49.624Z,62.42
2023-03-24T11:33:06.706Z,61.45
2023-03-24T11:35:29.524Z,60.76
2023-03-24T11:37:56.194Z,62.59
2023-03-24T11:40:13.522Z,61.76
2023-03-24T11:42:30.594Z,62.60
2023-03-24T11:44:47.465Z,60.95
2023-03-24T11:47:04.392Z,61.35
2023-03-24T11:49:21.550Z,61.35
2023-03-24T11:51:38.570Z,60.59
2023-03-24T11:53:55.656Z,58.98
2023-03-24T11:56:12.597Z,62.42
2023-03-24T11:58:29.638Z,60.84
2023-03-24T12:00:46.717Z,59.82
2023-03-24T12:03:03.933Z,60.35
2023-03-24T12:05:21.269Z,57.58
2023-03-24T12:07:38.345Z,57.60
2023-03-24T12:09:55.378Z,58.87
2023-03-24T12:12:12.635Z,58.82
2023-03-24T12:14:30.612Z,53.90
2023-03-24T12:16:47.797Z,58.69
2023-03-24T12:19:04.947Z,56.27
2023-03-24T12:21:21.931Z,56.23
2023-03-24T12:23:39.211Z,54.71
2023-03-24T12:25:56.344Z,54.00
2023-03-24T12:28:13.504Z,53.44
2023-03-24T12:30:30.858Z,53.23
2023-03-24T12:32:47.828Z,53.76
2023-03-24T12:35:05.196Z,51.58
2023-03-24T12:37:22.209Z,55.34
2023-03-24T12:39:39.192Z,54.74
2023-03-24T12:41:56.292Z,52.23
2023-03-24T12:44:14.355Z,54.05
2023-03-24T12:46:40.724Z,55.50
2023-03-24T12:49:04.600Z,53.82
2023-03-24T12:51:21.940Z,53.31
2023-03-24T12:53:38.913Z,49.35
2023-03-24T12:55:55.960Z,51.67
2023-03-24T12:58:14.231Z,52.82
2023-03-24T13:00:31.293Z,52.21
2023-03-24T13:02:48.706Z,51.31
2023-03-24T13:05:05.816Z,48.45
2023-03-24T13:07:22.740Z,49.43
2023-03-24T13:09:40.102Z,48.91
2023-03-24T13:11:57.054Z,49.28
2023-03-24T13:14:14.006Z,51.09
2023-03-24T13:16:31.362Z,51.61
2023-03-24T13:18:48.664Z,51.43
2023-03-24T13:21:05.664Z,50.15
2023-03-24T13:23:22.583Z,48.81
2023-03-24T13:25:39.878Z,48.14
2023-03-24T13:27:56.887Z,47.30
2023-03-24T13:30:13.901Z,47.58
2023-03-24T13:32:30.945Z,49.20
2023-03-24T13:34:47.879Z,49.15
2023-03-24T13:37:04.981Z,47.49
2023-03-24T13:39:22.118Z,45.95
2023-03-24T13:41:39.361Z,49.01
2023-03-24T13:43:56.296Z,47.31
2023-03-24T13:46:13.217Z,47.40
2023-03-24T13:48:30.290Z,46.37
2023-03-24T13:50:47.353Z,47.58
2023-03-24T13:53:04.691Z,47.40
2023-03-24T13:55:21.666Z,49.79
2023-03-24T13:57:38.809Z,48.36
2023-03-24T13:59:55.704Z,48.91
2023-03-24T14:02:12.781Z,48.19
2023-03-24T14:04:30.126Z,49.37
2023-03-24T14:06:47.236Z,48.41
2023-03-24T14:09:04.146Z,49.45
2023-03-24T14:11:21.106Z,49.64
2023-03-24T14:13:38.144Z,49.44
2023-03-24T14:15:55.353Z,48.88
2023-03-24T14:18:12.339Z,50.06
2023-03-24T14:20:29.273Z,50.61
2023-03-24T14:22:46.193Z,49.84
2023-03-24T14:25:03.216Z,50.23
2023-03-24T14:27:20.336Z,50.13
2023-03-24T14:29:38.670Z,48.86
2023-03-24T14:31:56.758Z,48.11
2023-03-24T14:34:14.318Z,50.03
2023-03-24T14:36:31.234Z,48.68
2023-03-24T14:38:48.269Z,46.93
2023-03-24T14:41:05.317Z,47.42
2023-03-24T14:43:22.309Z,49.09
2023-03-24T14:45:39.272Z,50.00
2023-03-24T14:47:56.390Z,52.02
2023-03-24T14:50:13.336Z,49.06
2023-03-24T14:52:30.324Z,50.81
2023-03-24T14:54:47.365Z,50.42
2023-03-24T14:57:04.552Z,49.64
2023-03-24T14:59:22.162Z,50.12
2023-03-24T15:01:39.308Z,47.20
2023-03-24T15:03:56.650Z,46.89
2023-03-24T15:06:13.644Z,47.09
2023-03-24T15:08:30.758Z,52.02
2023-03-24T15:10:48.400Z,48.26
2023-03-24T15:13:05.648Z,47.62
2023-03-24T15:15:22.621Z,47.76
2023-03-24T15:17:39.695Z,47.77
2023-03-24T15:19:56.694Z,45.60
2023-03-24T15:22:13.864Z,48.07
2023-03-24T15:24:30.905Z,44.95
2023-03-24T15:26:47.979Z,48.28
2023-03-24T15:29:04.913Z,47.85
2023-03-24T15:31:22.248Z,46.33
2023-03-24T15:33:39.161Z,45.77
2023-03-24T15:35:56.273Z,48.02
2023-03-24T15:38:13.597Z,48.19
2023-03-24T15:40:30.646Z,48.04
2023-03-24T15:42:48.046Z,45.56
2023-03-24T15:45:04.951Z,47.63
2023-03-24T15:47:21.988Z,48.53
2023-03-24T15:49:38.935Z,46.56
2023-03-24T15:51:55.908Z,46.26
2023-03-24T15:54:12.772Z,46.01
2023-03-24T15:56:30.048Z,47.56
2023-03-24T15:58:47.358Z,45.91
2023-03-24T16:01:04.669Z,47.45
2023-03-24T16:03:21.893Z,47.73
2023-03-24T16:05:39.254Z,49.44
2023-03-24T16:07:56.541Z,47.94
2023-03-24T16:10:13.477Z,48.03
2023-03-24T16:12:30.502Z,51.59
2023-03-24T16:14:48.409Z,50.72
2023-03-24T16:17:06.730Z,48.83
2023-03-24T16:19:24.050Z,49.38
2023-03-24T16:21:41.041Z,48.67
2023-03-24T16:23:58.258Z,49.17
2023-03-24T16:26:15.320Z,49.04
2023-03-24T16:28:33.938Z,48.29
2023-03-24T16:30:51.324Z,50.15
2023-03-24T16:33:08.441Z,50.34
2023-03-24T16:35:25.748Z,50.90
2023-03-24T16:37:43.116Z,50.44
2023-03-24T16:40:01.799Z,52.49
2023-03-24T16:42:20.597Z,52.29
2023-03-24T16:44:38.564Z,53.09
2023-03-24T16:46:56.577Z,51.06
2023-03-24T16:49:13.865Z,52.19
2023-03-24T16:51:31.942Z,53.54
2023-03-24T16:53:49.289Z,54.53
2023-03-24T16:56:06.636Z,54.78
2023-03-24T16:58:24.101Z,54.74
2023-03-24T17:00:41.260Z,56.38
2023-03-24T17:02:58.638Z,56.20
2023-03-24T17:05:15.600Z,55.20
2023-03-24T17:07:32.793Z,56.11
2023-03-24T17:09:49.733Z,55.97
2023-03-24T17:12:06.774Z,55.52
2023-03-24T17:14:24.699Z,57.82
2023-03-24T17:16:41.702Z,56.95
2023-03-24T17:18:58.799Z,58.29
2023-03-24T17:21:15.734Z,56.52
2023-03-24T17:23:33.998Z,57.57
2023-03-24T17:25:50.987Z,56.47
2023-03-24T17:28:08.320Z,58.54
2023-03-24T17:30:25.246Z,54.82
2023-03-24T17:32:42.608Z,55.85
2023-03-24T17:34:59.577Z,58.28
2023-03-24T17:37:16.983Z,58.89
2023-03-24T17:39:33.974Z,57.10
2023-03-24T17:41:50.856Z,59.59
2023-03-24T17:44:08.211Z,58.77
2023-03-24T17:46:25.546Z,59.34
2023-03-24T17:48:46.681Z,59.14
2023-03-24T17:51:05.196Z,60.81
2023-03-24T17:53:22.184Z,60.38
2023-03-24T17:55:39.072Z,60.45
2023-03-24T17:57:56.033Z,61.16
2023-03-24T18:00:13.331Z,62.74
2023-03-24T18:02:31.598Z,60.64
2023-03-24T18:04:49.632Z,61.68
2023-03-24T18:07:07.568Z,63.05
2023-03-24T18:09:24.409Z,62.02
2023-03-24T18:11:41.737Z,61.47
2023-03-24T18:13:58.655Z,62.83
2023-03-24T18:16:21.448Z,63.29
2023-03-24T18:18:39.057Z,63.98
2023-03-24T18:20:56.447Z,62.80
2023-03-24T18:23:13.819Z,62.86
2023-03-24T18:25:30.706Z,63.87
2023-03-24T18:27:47.800Z,64.83
2023-03-24T18:30:04.724Z,63.92
2023-03-24T18:32:22.046Z,61.73
2023-03-24T18:34:39.051Z,61.96
2023-03-24T18:36:56.115Z,62.99
2023-03-24T18:39:13.197Z,61.74
2023-03-24T18:41:30.274Z,61.09
2023-03-24T18:43:47.566Z,60.76
2023-03-24T18:46:04.869Z,62.03
2023-03-24T18:48:21.832Z,60.59
2023-03-24T18:50:38.796Z,62.32
2023-03-24T18:52:55.784Z,62.43
2023-03-24T18:55:12.756Z,63.19
2023-03-24T18:57:29.752Z,62.87
2023-03-24T18:59:46.672Z,64.17
2023-03-24T19:02:03.578Z,64.76
2023-03-24T19:04:20.545Z,63.66
2023-03-24T19:06:37.808Z,64.30
2023-03-24T19:08:54.761Z,64.97
2023-03-24T19:11:11.809Z,64.66
2023-03-24T19:13:28.720Z,66.05
2023-03-24T19:15:46.399Z,66.28
2023-03-24T19:18:03.972Z,66.68
2023-03-24T19:20:21.341Z,66.44
2023-03-24T19:22:39.361Z,67.52
2023-03-24T19:24:56.298Z,68.83
2023-03-24T19:27:13.419Z,68.39
2023-03-24T19:29:30.511Z,68.87
2023-03-24T19:31:47.577Z,69.19
2023-03-24T19:34:04.499Z,70.05
2023-03-24T19:36:21.496Z,70.43
2023-03-24T19:38:38.824Z,70.45
2023-03-24T19:40:55.818Z,71.18
2023-03-24T19:43:12.874Z,71.43
2023-03-24T19:45:29.926Z,72.09
2023-03-24T19:47:46.963Z,71.69
2023-03-24T19:50:04.307Z,72.40
2023-03-24T19:52:21.583Z,72.24
2023-03-24T19:54:39.569Z,72.66
2023-03-24T19:56:56.685Z,73.60
2023-03-24T19:59:13.990Z,74.11
2023-03-24T20:01:30.934Z,74.10
2023-03-24T20:03:48.176Z,73.25
2023-03-24T20:06:05.205Z,73.70
2023-03-24T20:08:22.214Z,74.48
2023-03-24T20:10:39.542Z,73.98
2023-03-24T20:12:56.857Z,74.77
2023-03-24T20:15:14.185Z,74.74
2023-03-24T20:17:31.081Z,74.60
2023-03-24T20:19:48.876Z,73.75
2023-03-24T20:22:05.929Z,74.38
2023-03-24T20:24:22.838Z,73.91
2023-03-24T20:26:40.182Z,72.90
2023-03-24T20:28:57.528Z,73.35
2023-03-24T20:31:14.544Z,73.57
2023-03-24T20:33:31.905Z,73.96
2023-03-24T20:35:49.210Z,73.50
2023-03-24T20:38:06.397Z,72.95
2023-03-24T20:40:23.729Z,73.29
2023-03-24T20:42:40.830Z,73.42
2023-03-24T20:44:57.758Z,73.48
2023-03-24T20:47:15.724Z,72.87
2023-03-24T20:49:32.644Z,71.31
2023-03-24T20:51:49.595Z,71.29
2023-03-24T20:54:06.946Z,72.04
2023-03-24T20:56:23.916Z,73.12
2023-03-24T20:58:40.991Z,73.91
2023-03-24T21:00:58.335Z,75.68
2023-03-24T21:03:15.359Z,75.90
2023-03-24T21:05:32.310Z,76.39
2023-03-24T21:07:49.366Z,76.50
2023-03-24T21:10:06.408Z,77.14
2023-03-24T21:12:23.387Z,77.71
2023-03-24T21:14:40.663Z,77.75
2023-03-24T21:16:57.661Z,78.29
2023-03-24T21:19:14.934Z,78.37
2023-03-24T21:21:31.815Z,78.78
2023-03-24T21:23:48.826Z,79.02
2023-03-24T21:26:06.082Z,79.53
2023-03-24T21:28:23.277Z,80.08
2023-03-24T21:30:40.273Z,78.86
2023-03-24T21:32:57.280Z,79.21
2023-03-24T21:35:14.592Z,80.36
2023-03-24T21:37:31.820Z,80.08
2023-03-24T21:39:48.754Z,81.95
2023-03-24T21:42:05.772Z,82.75
2023-03-24T21:44:23.002Z,83.07
2023-03-24T21:46:41.342Z,85.04
2023-03-24T21:48:58.503Z,85.22
2023-03-24T21:51:15.537Z,85.89
2023-03-24T21:53:32.917Z,86.56
2023-03-24T21:55:50.485Z,85.44
2023-03-24T21:58:08.014Z,85.44
2023-03-24T22:00:25.349Z,86.99
2023-03-24T22:02:43.316Z,87.52
2023-03-24T22:05:01.230Z,86.25
2023-03-24T22:07:19.301Z,87.04
2023-03-24T22:09:36.576Z,87.90
2023-03-24T22:11:53.860Z,88.76
2023-03-24T22:14:10.777Z,88.61
2023-03-24T22:16:27.877Z,87.27
2023-03-24T22:18:44.911Z,86.11
2023-03-24T22:21:01.901Z,86.40
2023-03-24T22:23:18.980Z,85.52
2023-03-24T22:25:36.392Z,82.67
2023-03-24T22:27:53.343Z,81.01
2023-03-24T22:30:10.377Z,79.53
2023-03-24T22:32:27.514Z,80.44
2023-03-24T22:34:44.912Z,79.54
2023-03-24T22:37:02.941Z,79.19
2023-03-24T22:39:20.312Z,80.98
2023-03-24T22:41:37.142Z,80.92
2023-03-24T22:43:54.208Z,81.33
2023-03-24T22:46:11.330Z,82.92
2023-03-24T22:48:28.458Z,83.90
2023-03-24T22:50:45.786Z,82.75
2023-03-24T22:53:02.643Z,82.88
2023-03-24T22:55:19.713Z,83.27
2023-03-24T22:57:36.671Z,83.35
2023-03-24T22:59:53.564Z,84.20
2023-03-24T23:02:11.756Z,84.00
2023-03-24T23:04:28.711Z,85.61
2023-03-24T23:06:45.665Z,85.17
2023-03-24T23:09:02.606Z,86.35
2023-03-24T23:11:19.512Z,86.64
2023-03-24T23:13:36.842Z,87.33
2023-03-24T23:15:53.925Z,87.67
2023-03-24T23:18:11.391Z,86.94
2023-03-24T23:20:28.682Z,88.00
2023-03-24T23:22:45.580Z,87.64
2023-03-24T23:25:03.294Z,87.75
2023-03-24T23:27:21.619Z,87.72
2023-03-24T23:29:38.713Z,87.52
2023-03-24T23:31:57.035Z,88.16
2023-03-24T23:34:14.453Z,87.63
2023-03-24T23:36:31.551Z,88.21
2023-03-24T23:38:48.511Z,88.88
2023-03-24T23:41:05.476Z,88.61
2023-03-24T23:43:22.862Z,88.95
2023-03-24T23:45:40.147Z,88.38
2023-03-24T23:47:57.440Z,89.41
2023-03-24T23:50:14.506Z,89.45
2023-03-24T23:52:31.887Z,89.95
2023-03-24T23:54:48.822Z,90.15
2023-03-24T23:57:06.215Z,90.45
2023-03-24T23:59:23.357Z,90.74
